Terminal Aerodrome Forecast
Issued by NWS

Home | Current Version | Previous Version | Text Only | Print | Product List | Glossary On
Versions: 1 2 3 4 5 6 7 8 9 10 11 12 13 14
151
FTUS45 KVEF 281732
TAFVGT
TAF
KVGT 281732Z 2818/2918 34020G30KT P6SM SKC
     FM282100 36015G25KT P6SM SKC
     FM291500 01012KT P6SM SKC=

USA.gov is the U.S. government's official web portal to all federal, state and local government web resources and services.